sensor_id;sensor_type;location;lat;lon;timestamp;pressure;altitude;pressure_sealevel;temperature;humidity
40502;BME280;29631;49.168;9.848;2023-03-12T00:00:46;96265.53;;;6.97;67.87
40502;BME280;29631;49.168;9.848;2023-03-12T00:03:12;96268.34;;;6.96;67.73
40502;BME280;29631;49.168;9.848;2023-03-12T00:05:40;96274.19;;;6.98;67.81
40502;BME280;29631;49.168;9.848;2023-03-12T00:08:06;96245.91;;;6.87;67.92
40502;BME280;29631;49.168;9.848;2023-03-12T00:10:33;96263.09;;;6.96;68.54
40502;BME280;29631;49.168;9.848;2023-03-12T00:12:59;96260.63;;;6.88;68.51
40502;BME280;29631;49.168;9.848;2023-03-12T00:15:26;96244.06;;;6.81;67.85
40502;BME280;29631;49.168;9.848;2023-03-12T00:17:51;96250.91;;;6.82;67.83
40502;BME280;29631;49.168;9.848;2023-03-12T00:20:18;96163.72;;;6.27;68.08
40502;BME280;29631;49.168;9.848;2023-03-12T00:22:44;96259.56;;;6.82;68.21
40502;BME280;29631;49.168;9.848;2023-03-12T00:25:13;96245.81;;;6.74;68.01
40502;BME280;29631;49.168;9.848;2023-03-12T00:27:40;96257.78;;;6.83;68.30
40502;BME280;29631;49.168;9.848;2023-03-12T00:30:07;96258.53;;;6.77;68.49
40502;BME280;29631;49.168;9.848;2023-03-12T00:32:33;96256.28;;;6.74;68.28
40502;BME280;29631;49.168;9.848;2023-03-12T00:34:59;96276.31;;;6.81;68.74
40502;BME280;29631;49.168;9.848;2023-03-12T00:37:25;96256.47;;;6.66;68.71
40502;BME280;29631;49.168;9.848;2023-03-12T00:39:51;96263.16;;;6.75;68.37
40502;BME280;29631;49.168;9.848;2023-03-12T00:42:18;96253.22;;;6.64;68.20
40502;BME280;29631;49.168;9.848;2023-03-12T00:44:44;96281.13;;;6.78;68.37
40502;BME280;29631;49.168;9.848;2023-03-12T00:47:11;96267.41;;;6.76;68.68
40502;BME280;29631;49.168;9.848;2023-03-12T00:49:37;96265.78;;;6.75;68.84
40502;BME280;29631;49.168;9.848;2023-03-12T00:52:03;96263.59;;;6.78;68.18
40502;BME280;29631;49.168;9.848;2023-03-12T00:54:30;96236.31;;;6.66;68.82
40502;BME280;29631;49.168;9.848;2023-03-12T00:56:55;96245.38;;;6.70;68.93
40502;BME280;29631;49.168;9.848;2023-03-12T00:59:21;96235.94;;;6.69;68.19
40502;BME280;29631;49.168;9.848;2023-03-12T01:01:47;96239.16;;;6.71;68.27
40502;BME280;29631;49.168;9.848;2023-03-12T01:04:13;96267.03;;;6.79;68.54
40502;BME280;29631;49.168;9.848;2023-03-12T01:06:39;96249.69;;;6.78;69.15
40502;BME280;29631;49.168;9.848;2023-03-12T01:09:06;96203.91;;;6.40;68.78
40502;BME280;29631;49.168;9.848;2023-03-12T01:11:34;96241.22;;;6.76;68.99
40502;BME280;29631;49.168;9.848;2023-03-12T01:14:01;96230.50;;;6.71;68.25
40502;BME280;29631;49.168;9.848;2023-03-12T01:16:28;96171.00;;;6.31;68.45
40502;BME280;29631;49.168;9.848;2023-03-12T01:18:56;96225.47;;;6.69;68.39
40502;BME280;29631;49.168;9.848;2023-03-12T01:21:23;96260.75;;;6.80;68.55
40502;BME280;29631;49.168;9.848;2023-03-12T01:23:50;96231.88;;;6.67;68.42
40502;BME280;29631;49.168;9.848;2023-03-12T01:26:15;96230.69;;;6.69;68.51
40502;BME280;29631;49.168;9.848;2023-03-12T01:28:41;96228.66;;;6.65;69.21
40502;BME280;29631;49.168;9.848;2023-03-12T01:31:10;96237.72;;;6.69;69.19
40502;BME280;29631;49.168;9.848;2023-03-12T01:33:36;96239.72;;;6.67;68.78
40502;BME280;29631;49.168;9.848;2023-03-12T01:36:02;96249.59;;;6.65;69.10
40502;BME280;29631;49.168;9.848;2023-03-12T01:38:27;96264.13;;;6.67;68.91
40502;BME280;29631;49.168;9.848;2023-03-12T01:40:53;96250.28;;;6.52;69.21
40502;BME280;29631;49.168;9.848;2023-03-12T01:43:32;96259.00;;;6.59;68.54
40502;BME280;29631;49.168;9.848;2023-03-12T01:48:57;96273.75;;;6.67;68.71
40502;BME280;29631;49.168;9.848;2023-03-12T01:51:37;96265.69;;;6.62;69.16
40502;BME280;29631;49.168;9.848;2023-03-12T01:54:12;96255.97;;;6.56;69.13
40502;BME280;29631;49.168;9.848;2023-03-12T01:56:41;96250.38;;;6.59;68.94
40502;BME280;29631;49.168;9.848;2023-03-12T01:59:19;96261.44;;;6.61;68.96
40502;BME280;29631;49.168;9.848;2023-03-12T02:01:47;96266.06;;;6.59;68.87
40502;BME280;29631;49.168;9.848;2023-03-12T02:04:17;96223.81;;;6.41;68.84
40502;BME280;29631;49.168;9.848;2023-03-12T02:09:39;96266.94;;;6.66;68.90
40502;BME280;29631;49.168;9.848;2023-03-12T02:12:06;96253.75;;;6.53;68.88
40502;BME280;29631;49.168;9.848;2023-03-12T02:14:32;96241.66;;;6.52;68.93
40502;BME280;29631;49.168;9.848;2023-03-12T02:16:58;96245.13;;;6.59;69.05
40502;BME280;29631;49.168;9.848;2023-03-12T02:19:58;96262.72;;;6.71;69.02
40502;BME280;29631;49.168;9.848;2023-03-12T02:22:27;96263.91;;;6.69;69.26
40502;BME280;29631;49.168;9.848;2023-03-12T02:27:48;96253.56;;;6.61;69.29
40502;BME280;29631;49.168;9.848;2023-03-12T02:30:15;96258.44;;;6.64;68.99
40502;BME280;29631;49.168;9.848;2023-03-12T02:32:43;96227.28;;;6.48;69.19
40502;BME280;29631;49.168;9.848;2023-03-12T02:35:10;96222.06;;;6.48;68.99
40502;BME280;29631;49.168;9.848;2023-03-12T02:37:51;96245.16;;;6.65;69.53
40502;BME280;29631;49.168;9.848;2023-03-12T02:40:40;96273.00;;;6.73;69.34
40502;BME280;29631;49.168;9.848;2023-03-12T02:43:09;96272.63;;;6.76;69.07
40502;BME280;29631;49.168;9.848;2023-03-12T02:45:35;96270.25;;;6.81;69.09
40502;BME280;29631;49.168;9.848;2023-03-12T02:48:04;96258.97;;;6.80;69.40
40502;BME280;29631;49.168;9.848;2023-03-12T02:50:32;96234.88;;;6.64;69.16
40502;BME280;29631;49.168;9.848;2023-03-12T02:52:58;96253.31;;;6.77;69.76
40502;BME280;29631;49.168;9.848;2023-03-12T02:55:24;96259.75;;;6.81;69.50
40502;BME280;29631;49.168;9.848;2023-03-12T02:57:49;96278.38;;;6.92;69.42
40502;BME280;29631;49.168;9.848;2023-03-12T03:00:16;96248.50;;;6.80;69.63
40502;BME280;29631;49.168;9.848;2023-03-12T03:02:42;96259.81;;;6.87;69.84
40502;BME280;29631;49.168;9.848;2023-03-12T03:05:10;96266.69;;;6.88;69.41
40502;BME280;29631;49.168;9.848;2023-03-12T03:07:36;96265.50;;;6.91;69.71
40502;BME280;29631;49.168;9.848;2023-03-12T03:10:03;96266.72;;;6.95;69.04
40502;BME280;29631;49.168;9.848;2023-03-12T03:12:34;96251.78;;;6.89;69.85
40502;BME280;29631;49.168;9.848;2023-03-12T03:15:01;96264.09;;;6.95;69.98
40502;BME280;29631;49.168;9.848;2023-03-12T03:17:28;96228.72;;;6.78;69.72
40502;BME280;29631;49.168;9.848;2023-03-12T03:19:54;96250.56;;;6.91;69.40
40502;BME280;29631;49.168;9.848;2023-03-12T03:22:21;96254.63;;;6.94;70.15
40502;BME280;29631;49.168;9.848;2023-03-12T03:24:47;96241.50;;;6.94;69.75
40502;BME280;29631;49.168;9.848;2023-03-12T03:27:14;96238.69;;;6.95;70.19
40502;BME280;29631;49.168;9.848;2023-03-12T03:29:40;96237.09;;;6.94;69.84
40502;BME280;29631;49.168;9.848;2023-03-12T03:32:06;96216.66;;;6.83;69.90
40502;BME280;29631;49.168;9.848;2023-03-12T03:34:32;96220.63;;;6.73;70.10
40502;BME280;29631;49.168;9.848;2023-03-12T03:36:57;96242.59;;;7.06;70.75
40502;BME280;29631;49.168;9.848;2023-03-12T03:39:23;96239.38;;;7.04;70.34
40502;BME280;29631;49.168;9.848;2023-03-12T03:41:50;96239.38;;;7.04;70.25
40502;BME280;29631;49.168;9.848;2023-03-12T03:44:17;96237.34;;;7.06;69.61
40502;BME280;29631;49.168;9.848;2023-03-12T03:46:43;96192.09;;;6.84;69.61
40502;BME280;29631;49.168;9.848;2023-03-12T03:49:09;96207.84;;;6.91;70.00
40502;BME280;29631;49.168;9.848;2023-03-12T03:51:35;96220.59;;;7.00;70.03
40502;BME280;29631;49.168;9.848;2023-03-12T03:54:01;96205.41;;;6.89;69.83
40502;BME280;29631;49.168;9.848;2023-03-12T03:56:26;96226.44;;;7.02;69.87
40502;BME280;29631;49.168;9.848;2023-03-12T03:58:52;96237.19;;;7.07;69.87
40502;BME280;29631;49.168;9.848;2023-03-12T04:01:18;96239.41;;;7.10;70.24
40502;BME280;29631;49.168;9.848;2023-03-12T04:03:44;96200.16;;;6.89;70.52
40502;BME280;29631;49.168;9.848;2023-03-12T04:06:11;96251.72;;;7.16;70.33
40502;BME280;29631;49.168;9.848;2023-03-12T04:08:37;96237.59;;;7.11;70.56
40502;BME280;29631;49.168;9.848;2023-03-12T04:11:29;96232.56;;;7.16;69.98
40502;BME280;29631;49.168;9.848;2023-03-12T04:13:56;96203.47;;;6.98;70.41
40502;BME280;29631;49.168;9.848;2023-03-12T04:16:22;96229.34;;;7.14;70.32
40502;BME280;29631;49.168;9.848;2023-03-12T04:18:47;96212.16;;;7.05;70.58
40502;BME280;29631;49.168;9.848;2023-03-12T04:21:14;96249.53;;;7.19;70.49
40502;BME280;29631;49.168;9.848;2023-03-12T04:23:41;96249.75;;;7.24;70.62
40502;BME280;29631;49.168;9.848;2023-03-12T04:26:07;96219.25;;;7.11;70.21
40502;BME280;29631;49.168;9.848;2023-03-12T04:28:34;96245.13;;;7.26;70.65
40502;BME280;29631;49.168;9.848;2023-03-12T04:31:03;96239.88;;;7.26;70.88
40502;BME280;29631;49.168;9.848;2023-03-12T04:33:33;96213.81;;;7.18;70.13
40502;BME280;29631;49.168;9.848;2023-03-12T04:35:59;96234.25;;;7.29;70.28
40502;BME280;29631;49.168;9.848;2023-03-12T04:38:26;96220.53;;;7.27;70.23
40502;BME280;29631;49.168;9.848;2023-03-12T04:41:06;96225.41;;;7.30;70.80
40502;BME280;29631;49.168;9.848;2023-03-12T04:43:33;96212.28;;;7.30;70.03
40502;BME280;29631;49.168;9.848;2023-03-12T04:45:59;96240.94;;;7.38;70.38
40502;BME280;29631;49.168;9.848;2023-03-12T04:48:25;96227.78;;;7.25;69.66
40502;BME280;29631;49.168;9.848;2023-03-12T04:50:51;96226.16;;;7.24;70.22
40502;BME280;29631;49.168;9.848;2023-03-12T04:53:17;96215.22;;;7.15;70.47
40502;BME280;29631;49.168;9.848;2023-03-12T04:55:43;96228.13;;;7.16;70.50
40502;BME280;29631;49.168;9.848;2023-03-12T04:58:09;96215.19;;;7.08;69.83
40502;BME280;29631;49.168;9.848;2023-03-12T05:00:35;96234.63;;;7.20;70.30
40502;BME280;29631;49.168;9.848;2023-03-12T05:03:01;96220.47;;;7.15;69.85
40502;BME280;29631;49.168;9.848;2023-03-12T05:05:26;96236.25;;;7.27;69.78
40502;BME280;29631;49.168;9.848;2023-03-12T05:07:52;96231.22;;;7.26;70.01
40502;BME280;29631;49.168;9.848;2023-03-12T05:10:18;96236.25;;;7.27;70.05
40502;BME280;29631;49.168;9.848;2023-03-12T05:12:44;96220.09;;;7.18;70.63
40502;BME280;29631;49.168;9.848;2023-03-12T05:15:10;96235.47;;;7.33;69.95
40502;BME280;29631;49.168;9.848;2023-03-12T05:17:35;96215.66;;;7.24;70.60
40502;BME280;29631;49.168;9.848;2023-03-12T05:20:01;96209.44;;;7.25;70.33
40502;BME280;29631;49.168;9.848;2023-03-12T05:22:29;96209.44;;;7.25;70.35
40502;BME280;29631;49.168;9.848;2023-03-12T05:24:54;96234.75;;;7.46;70.96
40502;BME280;29631;49.168;9.848;2023-03-12T05:27:20;96243.19;;;7.48;70.76
40502;BME280;29631;49.168;9.848;2023-03-12T05:29:46;96232.72;;;7.48;70.58
40502;BME280;29631;49.168;9.848;2023-03-12T05:32:11;96229.25;;;7.41;70.93
40502;BME280;29631;49.168;9.848;2023-03-12T05:34:37;96225.84;;;7.47;70.28
40502;BME280;29631;49.168;9.848;2023-03-12T05:37:03;96199.56;;;7.27;70.63
40502;BME280;29631;49.168;9.848;2023-03-12T05:39:29;96242.84;;;7.57;70.29
40502;BME280;29631;49.168;9.848;2023-03-12T05:41:54;96183.41;;;7.18;70.40
40502;BME280;29631;49.168;9.848;2023-03-12T05:44:23;96233.75;;;7.53;70.41
40502;BME280;29631;49.168;9.848;2023-03-12T05:46:50;96238.38;;;7.51;70.56
40502;BME280;29631;49.168;9.848;2023-03-12T05:49:15;96216.97;;;7.41;70.91
40502;BME280;29631;49.168;9.848;2023-03-12T05:51:41;96241.25;;;7.56;70.74
40502;BME280;29631;49.168;9.848;2023-03-12T05:54:08;96227.28;;;7.49;70.77
40502;BME280;29631;49.168;9.848;2023-03-12T05:56:36;96247.13;;;7.65;71.17
40502;BME280;29631;49.168;9.848;2023-03-12T05:59:02;96228.34;;;7.61;70.34
40502;BME280;29631;49.168;9.848;2023-03-12T06:01:28;96251.78;;;7.76;71.00
40502;BME280;29631;49.168;9.848;2023-03-12T06:03:55;96259.84;;;7.81;70.23
40502;BME280;29631;49.168;9.848;2023-03-12T06:06:21;96266.31;;;7.78;70.37
40502;BME280;29631;49.168;9.848;2023-03-12T06:08:49;96262.69;;;7.79;70.68
40502;BME280;29631;49.168;9.848;2023-03-12T06:11:16;96250.56;;;7.78;69.94
40502;BME280;29631;49.168;9.848;2023-03-12T06:13:41;96259.47;;;7.84;70.51
40502;BME280;29631;49.168;9.848;2023-03-12T06:16:20;96266.75;;;7.88;70.17
40502;BME280;29631;49.168;9.848;2023-03-12T06:18:47;96266.53;;;7.83;70.52
40502;BME280;29631;49.168;9.848;2023-03-12T06:21:20;96242.09;;;7.76;70.68
40502;BME280;29631;49.168;9.848;2023-03-12T06:23:47;96260.28;;;7.84;71.49
40502;BME280;29631;49.168;9.848;2023-03-12T06:26:15;96163.88;;;7.26;71.10
40502;BME280;29631;49.168;9.848;2023-03-12T06:28:41;96171.34;;;7.29;70.92
40502;BME280;29631;49.168;9.848;2023-03-12T06:31:08;96218.84;;;7.67;70.50
40502;BME280;29631;49.168;9.848;2023-03-12T06:33:34;96255.06;;;7.91;70.59
40502;BME280;29631;49.168;9.848;2023-03-12T06:36:02;96243.31;;;7.87;70.59
40502;BME280;29631;49.168;9.848;2023-03-12T06:38:29;96252.63;;;7.89;71.29
40502;BME280;29631;49.168;9.848;2023-03-12T06:41:10;96251.81;;;7.95;71.49
40502;BME280;29631;49.168;9.848;2023-03-12T06:43:37;96248.00;;;7.91;70.82
40502;BME280;29631;49.168;9.848;2023-03-12T06:46:05;96244.16;;;7.87;70.97
40502;BME280;29631;49.168;9.848;2023-03-12T06:48:33;96246.97;;;7.92;70.88
40502;BME280;29631;49.168;9.848;2023-03-12T06:51:04;96253.22;;;7.91;71.31
40502;BME280;29631;49.168;9.848;2023-03-12T06:53:30;96230.78;;;7.82;71.44
40502;BME280;29631;49.168;9.848;2023-03-12T06:55:57;96242.94;;;7.90;71.25
40502;BME280;29631;49.168;9.848;2023-03-12T06:58:23;96229.22;;;7.81;71.49
40502;BME280;29631;49.168;9.848;2023-03-12T07:00:50;96209.78;;;7.69;71.97
40502;BME280;29631;49.168;9.848;2023-03-12T07:03:16;96223.53;;;7.84;71.85
40502;BME280;29631;49.168;9.848;2023-03-12T07:05:47;96243.34;;;7.93;72.18
40502;BME280;29631;49.168;9.848;2023-03-12T07:08:13;96240.94;;;7.98;71.52
40502;BME280;29631;49.168;9.848;2023-03-12T07:10:39;96244.97;;;8.00;71.87
40502;BME280;29631;49.168;9.848;2023-03-12T07:13:06;96242.56;;;7.99;71.52
40502;BME280;29631;49.168;9.848;2023-03-12T07:15:32;96227.63;;;7.93;72.41
40502;BME280;29631;49.168;9.848;2023-03-12T07:18:08;96237.69;;;7.96;72.60
40502;BME280;29631;49.168;9.848;2023-03-12T07:20:39;96233.69;;;8.00;71.70
40502;BME280;29631;49.168;9.848;2023-03-12T07:23:06;96245.00;;;8.07;72.56
40502;BME280;29631;49.168;9.848;2023-03-12T07:25:38;96241.56;;;8.06;72.39
40502;BME280;29631;49.168;9.848;2023-03-12T07:28:06;96212.06;;;7.92;72.04
40502;BME280;29631;49.168;9.848;2023-03-12T07:30:33;96219.56;;;8.01;72.41
40502;BME280;29631;49.168;9.848;2023-03-12T07:33:05;96238.53;;;8.09;72.61
40502;BME280;29631;49.168;9.848;2023-03-12T07:35:31;96243.38;;;8.12;72.76
40502;BME280;29631;49.168;9.848;2023-03-12T07:37:58;96245.59;;;8.09;72.24
40502;BME280;29631;49.168;9.848;2023-03-12T07:40:24;96227.19;;;7.96;72.24
40502;BME280;29631;49.168;9.848;2023-03-12T07:42:50;96234.09;;;8.03;73.07
40502;BME280;29631;49.168;9.848;2023-03-12T07:45:17;96238.53;;;8.03;72.70
40502;BME280;29631;49.168;9.848;2023-03-12T07:47:43;96258.13;;;8.07;73.11
40502;BME280;29631;49.168;9.848;2023-03-12T07:50:10;96233.28;;;7.96;73.44
40502;BME280;29631;49.168;9.848;2023-03-12T07:52:36;96242.16;;;8.02;73.42
40502;BME280;29631;49.168;9.848;2023-03-12T07:55:02;96186.38;;;7.61;74.03
40502;BME280;29631;49.168;9.848;2023-03-12T07:57:28;96245.41;;;7.97;73.10
40502;BME280;29631;49.168;9.848;2023-03-12T07:59:53;96184.38;;;7.70;73.42
40502;BME280;29631;49.168;9.848;2023-03-12T08:02:19;96222.19;;;8.01;73.77
40502;BME280;29631;49.168;9.848;2023-03-12T08:04:45;96258.78;;;8.22;73.71
40502;BME280;29631;49.168;9.848;2023-03-12T08:07:11;96247.28;;;8.23;73.30
40502;BME280;29631;49.168;9.848;2023-03-12T08:09:38;96248.28;;;8.28;74.04
40502;BME280;29631;49.168;9.848;2023-03-12T08:12:05;96234.75;;;8.25;74.51
40502;BME280;29631;49.168;9.848;2023-03-12T08:14:31;96222.59;;;8.11;74.25
40502;BME280;29631;49.168;9.848;2023-03-12T08:16:57;96187.00;;;7.76;73.82
40502;BME280;29631;49.168;9.848;2023-03-12T08:19:24;96207.81;;;7.97;73.99
40502;BME280;29631;49.168;9.848;2023-03-12T08:21:50;96246.28;;;8.30;73.48
40502;BME280;29631;49.168;9.848;2023-03-12T08:24:18;96239.00;;;8.32;74.15
40502;BME280;29631;49.168;9.848;2023-03-12T08:26:44;96232.56;;;8.41;74.19
40502;BME280;29631;49.168;9.848;2023-03-12T08:29:10;96243.66;;;8.43;73.84
40502;BME280;29631;49.168;9.848;2023-03-12T08:31:36;96234.16;;;8.49;74.56
40502;BME280;29631;49.168;9.848;2023-03-12T08:34:02;96242.44;;;8.52;74.17
40502;BME280;29631;49.168;9.848;2023-03-12T08:36:28;96237.00;;;8.47;73.44
40502;BME280;29631;49.168;9.848;2023-03-12T08:38:54;96233.34;;;8.55;74.04
40502;BME280;29631;49.168;9.848;2023-03-12T08:41:20;96226.88;;;8.51;73.88
40502;BME280;29631;49.168;9.848;2023-03-12T08:43:46;96228.50;;;8.52;73.81
40502;BME280;29631;49.168;9.848;2023-03-12T08:46:12;96213.94;;;8.56;74.54
40502;BME280;29631;49.168;9.848;2023-03-12T08:48:38;96220.00;;;8.56;74.25
40502;BME280;29631;49.168;9.848;2023-03-12T08:51:05;96212.13;;;8.56;73.85
40502;BME280;29631;49.168;9.848;2023-03-12T08:53:34;96246.66;;;8.72;74.13
40502;BME280;29631;49.168;9.848;2023-03-12T08:56:01;96227.91;;;8.63;74.50
40502;BME280;29631;49.168;9.848;2023-03-12T08:58:27;96230.91;;;8.66;74.93
40502;BME280;29631;49.168;9.848;2023-03-12T09:00:54;96221.63;;;8.70;73.93
40502;BME280;29631;49.168;9.848;2023-03-12T09:03:21;96221.03;;;8.62;74.62
40502;BME280;29631;49.168;9.848;2023-03-12T09:05:48;96211.94;;;8.58;74.98
40502;BME280;29631;49.168;9.848;2023-03-12T09:08:14;96234.97;;;8.68;74.19
40502;BME280;29631;49.168;9.848;2023-03-12T09:10:47;96265.47;;;8.69;74.48
40502;BME280;29631;49.168;9.848;2023-03-12T09:13:14;96249.91;;;8.62;74.07
40502;BME280;29631;49.168;9.848;2023-03-12T09:15:40;96245.47;;;8.56;74.98
40502;BME280;29631;49.168;9.848;2023-03-12T09:18:06;96232.16;;;8.51;74.37
40502;BME280;29631;49.168;9.848;2023-03-12T09:20:32;96240.63;;;8.53;74.74
40502;BME280;29631;49.168;9.848;2023-03-12T09:22:58;96230.13;;;8.46;74.92
40502;BME280;29631;49.168;9.848;2023-03-12T09:25:24;96243.84;;;8.67;74.49
40502;BME280;29631;49.168;9.848;2023-03-12T09:27:50;96218.78;;;8.65;74.64
40502;BME280;29631;49.168;9.848;2023-03-12T09:30:19;96238.59;;;8.80;74.44
40502;BME280;29631;49.168;9.848;2023-03-12T09:32:46;96241.63;;;8.90;74.53
40502;BME280;29631;49.168;9.848;2023-03-12T09:35:14;96223.22;;;8.90;75.12
40502;BME280;29631;49.168;9.848;2023-03-12T09:37:40;96217.13;;;8.90;75.19
40502;BME280;29631;49.168;9.848;2023-03-12T09:40:10;96236.13;;;8.98;74.96
40502;BME280;29631;49.168;9.848;2023-03-12T09:42:54;96177.16;;;8.68;75.19
40502;BME280;29631;49.168;9.848;2023-03-12T09:45:31;96225.59;;;8.98;74.71
40502;BME280;29631;49.168;9.848;2023-03-12T09:48:04;96216.31;;;8.96;75.37
40502;BME280;29631;49.168;9.848;2023-03-12T09:50:41;96219.94;;;8.95;74.96
40502;BME280;29631;49.168;9.848;2023-03-12T09:53:33;96240.59;;;9.04;75.03
40502;BME280;29631;49.168;9.848;2023-03-12T09:56:04;96224.81;;;8.98;76.06
40502;BME280;29631;49.168;9.848;2023-03-12T09:58:38;96244.22;;;9.03;75.69
40502;BME280;29631;49.168;9.848;2023-03-12T10:24:20;96236.91;;;9.05;77.23
40502;BME280;29631;49.168;9.848;2023-03-12T10:26:52;96236.75;;;9.07;78.02
40502;BME280;29631;49.168;9.848;2023-03-12T10:29:30;96210.66;;;8.92;78.25
40502;BME280;29631;49.168;9.848;2023-03-12T10:32:16;96235.34;;;9.04;78.38
40502;BME280;29631;49.168;9.848;2023-03-12T10:34:56;96248.22;;;9.12;79.11
40502;BME280;29631;49.168;9.848;2023-03-12T10:37:36;96254.72;;;9.16;78.18
40502;BME280;29631;49.168;9.848;2023-03-12T10:40:04;96244.19;;;9.16;79.04
40502;BME280;29631;49.168;9.848;2023-03-12T10:42:31;96241.78;;;9.08;78.39
40502;BME280;29631;49.168;9.848;2023-03-12T10:47:41;96244.16;;;9.23;79.67
40502;BME280;29631;49.168;9.848;2023-03-12T10:50:23;96254.88;;;9.28;79.49
40502;BME280;29631;49.168;9.848;2023-03-12T10:52:52;96240.91;;;9.21;80.37
40502;BME280;29631;49.168;9.848;2023-03-12T10:55:23;96272.22;;;9.48;79.92
40502;BME280;29631;49.168;9.848;2023-03-12T10:57:52;96259.47;;;9.45;80.28
40502;BME280;29631;49.168;9.848;2023-03-12T11:00:29;96273.19;;;9.53;80.80
40502;BME280;29631;49.168;9.848;2023-03-12T11:03:05;96271.16;;;9.62;79.89
40502;BME280;29631;49.168;9.848;2023-03-12T11:05:49;96264.91;;;9.56;80.54
40502;BME280;29631;49.168;9.848;2023-03-12T11:08:32;96261.66;;;9.61;81.35
40502;BME280;29631;49.168;9.848;2023-03-12T11:11:03;96272.75;;;9.69;80.67
40502;BME280;29631;49.168;9.848;2023-03-12T11:13:36;96280.22;;;9.72;81.30
40502;BME280;29631;49.168;9.848;2023-03-12T11:16:25;96278.81;;;9.76;82.61
40502;BME280;29631;49.168;9.848;2023-03-12T11:18:57;96275.13;;;9.84;82.28
40502;BME280;29631;49.168;9.848;2023-03-12T11:21:30;96271.88;;;9.82;82.16
40502;BME280;29631;49.168;9.848;2023-03-12T11:29:44;96254.50;;;9.81;82.42
40502;BME280;29631;49.168;9.848;2023-03-12T11:32:36;96275.06;;;9.97;83.53
40502;BME280;29631;49.168;9.848;2023-03-12T11:35:10;96270.59;;;10.04;83.93
40502;BME280;29631;49.168;9.848;2023-03-12T11:38:16;96266.47;;;10.14;83.12
40502;BME280;29631;49.168;9.848;2023-03-12T11:41:09;96279.81;;;10.25;84.29
40502;BME280;29631;49.168;9.848;2023-03-12T11:46:26;96249.84;;;10.20;83.90
40502;BME280;29631;49.168;9.848;2023-03-12T11:51:55;96263.47;;;10.41;84.86
40502;BME280;29631;49.168;9.848;2023-03-12T12:00:39;96282.31;;;10.69;84.28
40502;BME280;29631;49.168;9.848;2023-03-12T12:09:39;96274.47;;;10.87;85.20
40502;BME280;29631;49.168;9.848;2023-03-12T12:12:19;96273.22;;;10.89;84.13
40502;BME280;29631;49.168;9.848;2023-03-12T12:15:18;96275.22;;;10.94;84.79
40502;BME280;29631;49.168;9.848;2023-03-12T12:24:06;96258.03;;;11.09;85.41
40502;BME280;29631;49.168;9.848;2023-03-12T12:41:20;96220.03;;;11.35;86.11
40502;BME280;29631;49.168;9.848;2023-03-12T12:43:50;96210.72;;;11.32;85.07
40502;BME280;29631;49.168;9.848;2023-03-12T12:49:35;96233.97;;;11.59;86.51
40502;BME280;29631;49.168;9.848;2023-03-12T12:52:11;96238.00;;;11.62;87.03
40502;BME280;29631;49.168;9.848;2023-03-12T12:56:05;96236.75;;;11.64;87.74
40502;BME280;29631;49.168;9.848;2023-03-12T12:58:09;96233.09;;;11.65;86.88
40502;BME280;29631;49.168;9.848;2023-03-12T13:00:48;96215.03;;;11.62;87.42
40502;BME280;29631;49.168;9.848;2023-03-12T13:03:22;96220.50;;;11.67;87.17
40502;BME280;29631;49.168;9.848;2023-03-12T13:06:00;96219.00;;;11.71;87.70
40502;BME280;29631;49.168;9.848;2023-03-12T13:08:35;96231.81;;;11.86;88.00
40502;BME280;29631;49.168;9.848;2023-03-12T13:11:36;96211.50;;;11.86;87.42
40502;BME280;29631;49.168;9.848;2023-03-12T13:16:43;96223.94;;;11.97;87.91
40502;BME280;29631;49.168;9.848;2023-03-12T13:22:17;96232.13;;;12.07;88.51
40502;BME280;29631;49.168;9.848;2023-03-12T13:24:51;96229.88;;;12.22;87.30
40502;BME280;29631;49.168;9.848;2023-03-12T13:27:40;96234.63;;;12.31;88.49
40502;BME280;29631;49.168;9.848;2023-03-12T13:35:38;96206.16;;;12.33;89.08
40502;BME280;29631;49.168;9.848;2023-03-12T13:38:11;96224.34;;;12.53;87.92
40502;BME280;29631;49.168;9.848;2023-03-12T13:40:54;96213.19;;;12.51;89.01
40502;BME280;29631;49.168;9.848;2023-03-12T13:48:45;96220.22;;;12.68;89.15
40502;BME280;29631;49.168;9.848;2023-03-12T13:51:23;96209.53;;;12.75;89.51
40502;BME280;29631;49.168;9.848;2023-03-12T13:53:54;96223.16;;;12.90;88.60
40502;BME280;29631;49.168;9.848;2023-03-12T13:56:31;96215.22;;;12.90;89.68
40502;BME280;29631;49.168;9.848;2023-03-12T13:59:15;96203.28;;;12.87;89.84
40502;BME280;29631;49.168;9.848;2023-03-12T14:01:47;96209.56;;;12.98;89.48
40502;BME280;29631;49.168;9.848;2023-03-12T14:04:20;96193.34;;;12.94;89.92
40502;BME280;29631;49.168;9.848;2023-03-12T14:13:07;96224.06;;;13.29;89.44
40502;BME280;29631;49.168;9.848;2023-03-12T14:18:27;96214.63;;;13.33;89.75
40502;BME280;29631;49.168;9.848;2023-03-12T14:21:00;96229.78;;;13.49;89.71
40502;BME280;29631;49.168;9.848;2023-03-12T14:23:37;96216.78;;;13.48;89.90
40502;BME280;29631;49.168;9.848;2023-03-12T14:26:05;96229.19;;;13.59;90.19
40502;BME280;29631;49.168;9.848;2023-03-12T14:28:40;96226.31;;;13.60;89.70
40502;BME280;29631;49.168;9.848;2023-03-12T14:31:15;96195.16;;;13.51;89.45
40502;BME280;29631;49.168;9.848;2023-03-12T14:39:56;96217.72;;;13.81;89.96
40502;BME280;29631;49.168;9.848;2023-03-12T14:42:35;96223.69;;;13.88;89.68
40502;BME280;29631;49.168;9.848;2023-03-12T14:45:13;96229.00;;;13.88;90.21
40502;BME280;29631;49.168;9.848;2023-03-12T14:47:47;96221.63;;;13.90;89.26
40502;BME280;29631;49.168;9.848;2023-03-12T14:50:26;96224.59;;;13.93;89.63
40502;BME280;29631;49.168;9.848;2023-03-12T14:52:54;96219.06;;;13.95;89.38
40502;BME280;29631;49.168;9.848;2023-03-12T14:55:24;96225.03;;;14.02;89.08
40502;BME280;29631;49.168;9.848;2023-03-12T14:58:17;96226.31;;;13.99;89.11
40502;BME280;29631;49.168;9.848;2023-03-12T15:00:44;96235.88;;;14.12;89.54
40502;BME280;29631;49.168;9.848;2023-03-12T15:03:19;96213.41;;;14.03;88.85
40502;BME280;29631;49.168;9.848;2023-03-12T15:05:46;96218.78;;;14.08;89.14
40502;BME280;29631;49.168;9.848;2023-03-12T15:08:13;96222.53;;;14.23;88.90
40502;BME280;29631;49.168;9.848;2023-03-12T15:10:40;96198.19;;;14.10;89.13
40502;BME280;29631;49.168;9.848;2023-03-12T15:13:12;96185.25;;;14.13;88.44
40502;BME280;29631;49.168;9.848;2023-03-12T15:15:50;96208.13;;;14.31;89.25
40502;BME280;29631;49.168;9.848;2023-03-12T15:18:21;96178.53;;;14.22;89.29